createdAt,value
2023-03-05T00:01:13.480Z,50.89
2023-03-05T00:04:39.707Z,47.42
2023-03-05T00:08:06.122Z,46.55
2023-03-05T00:11:33.768Z,49.63
2023-03-05T00:14:52.203Z,50.32
2023-03-05T00:18:18.436Z,53.09
2023-03-05T00:21:44.578Z,53.53
2023-03-05T00:25:10.995Z,54.84
2023-03-05T00:28:36.978Z,56.70
2023-03-05T00:32:02.956Z,55.89
2023-03-05T00:35:22.008Z,55.63
2023-03-05T00:38:47.727Z,55.84
2023-03-05T00:42:13.413Z,57.71
2023-03-05T00:45:39.189Z,57.89
2023-03-05T00:49:05.256Z,64.42
2023-03-05T00:52:30.951Z,71.49
2023-03-05T00:55:56.758Z,67.94
2023-03-05T00:59:22.787Z,62.24
2023-03-05T01:02:48.531Z,58.29
2023-03-05T01:06:08.393Z,55.37
2023-03-05T01:09:34.071Z,53.36
2023-03-05T01:12:59.789Z,52.26
2023-03-05T01:16:25.599Z,51.30
2023-03-05T01:19:51.401Z,50.16
2023-03-05T01:23:17.552Z,48.79
2023-03-05T01:26:43.525Z,46.21
2023-03-05T01:30:10.896Z,49.10
2023-03-05T01:33:36.730Z,53.40
2023-03-05T01:37:02.420Z,53.83
2023-03-05T01:40:29.430Z,57.66
2023-03-05T01:43:55.021Z,56.26
2023-03-05T01:47:20.979Z,56.89
2023-03-05T01:50:46.641Z,56.41
2023-03-05T01:54:14.646Z,56.56
2023-03-05T01:57:43.204Z,56.22
2023-03-05T02:01:09.081Z,56.74
2023-03-05T02:04:37.514Z,60.69
2023-03-05T02:08:05.623Z,71.17
2023-03-05T02:11:31.803Z,68.62
2023-03-05T02:14:59.918Z,64.20
2023-03-05T02:18:25.788Z,60.87
2023-03-05T02:21:52.094Z,57.93
2023-03-05T02:25:20.205Z,55.80
2023-03-05T02:28:47.036Z,54.44
2023-03-05T02:32:13.127Z,51.93
2023-03-05T02:35:39.125Z,48.47
2023-03-05T02:39:05.154Z,50.97
2023-03-05T02:42:33.618Z,53.37
2023-03-05T02:45:59.293Z,54.92
2023-03-05T02:49:25.288Z,54.54
2023-03-05T02:52:51.381Z,53.68
2023-03-05T02:56:17.178Z,54.24
2023-03-05T02:59:43.056Z,53.32
2023-03-05T03:03:09.392Z,53.76
2023-03-05T03:06:35.064Z,54.61
2023-03-05T03:10:00.692Z,61.00
2023-03-05T03:13:26.482Z,69.97
2023-03-05T03:16:52.602Z,68.27
2023-03-05T03:20:19.222Z,63.54
2023-03-05T03:23:44.798Z,59.90
2023-03-05T03:27:10.948Z,55.64
2023-03-05T03:30:36.812Z,55.95
2023-03-05T03:34:03.215Z,57.05
2023-03-05T03:37:29.087Z,56.65
2023-03-05T03:40:54.728Z,55.87
2023-03-05T03:44:21.625Z,55.52
2023-03-05T03:47:48.836Z,54.81
2023-03-05T03:51:14.507Z,54.63
2023-03-05T03:54:40.193Z,55.56
2023-03-05T03:58:05.925Z,58.69
2023-03-05T04:01:31.681Z,58.78
2023-03-05T04:04:57.846Z,62.70
2023-03-05T04:08:23.623Z,71.20
2023-03-05T04:11:49.267Z,72.15
2023-03-05T04:15:15.255Z,66.39
2023-03-05T04:18:41.095Z,61.71
2023-03-05T04:22:06.926Z,56.49
2023-03-05T04:25:32.839Z,54.84
2023-03-05T04:28:58.490Z,54.73
2023-03-05T04:32:28.615Z,54.87
2023-03-05T04:35:54.195Z,54.49
2023-03-05T04:39:21.015Z,55.80
2023-03-05T04:42:46.819Z,61.03
2023-03-05T04:46:12.709Z,68.96
2023-03-05T04:49:38.409Z,67.55
2023-03-05T04:53:04.656Z,61.37
2023-03-05T04:56:30.439Z,54.33
2023-03-05T04:59:56.059Z,53.47
2023-03-05T05:03:22.040Z,54.03
2023-03-05T05:06:47.803Z,53.97
2023-03-05T05:10:14.649Z,54.18
2023-03-05T05:13:40.495Z,54.00
2023-03-05T05:17:06.474Z,54.36
2023-03-05T05:20:32.385Z,57.32
2023-03-05T05:23:57.945Z,60.87
2023-03-05T05:27:23.744Z,68.93
2023-03-05T05:30:49.546Z,70.39
2023-03-05T05:34:15.409Z,66.47
2023-03-05T05:37:41.646Z,59.97
2023-03-05T05:41:08.772Z,54.13
2023-03-05T05:44:35.017Z,56.21
2023-03-05T05:48:00.868Z,56.56
2023-03-05T05:51:26.707Z,56.37
2023-03-05T05:54:52.726Z,60.20
2023-03-05T05:58:18.781Z,66.17
2023-03-05T06:01:44.735Z,69.16
2023-03-05T06:05:13.073Z,63.14
2023-03-05T06:08:31.397Z,60.35
2023-03-05T06:11:57.348Z,61.66
2023-03-05T06:15:23.227Z,64.98
2023-03-05T06:18:49.500Z,62.11
2023-03-05T06:22:15.340Z,61.30
2023-03-05T06:25:41.260Z,61.32
2023-03-05T06:29:07.265Z,63.83
2023-03-05T06:32:33.560Z,63.07
2023-03-05T06:35:59.398Z,60.74
2023-03-05T06:39:25.035Z,59.24
2023-03-05T06:42:50.599Z,58.43
2023-03-05T06:46:17.432Z,63.99
2023-03-05T06:49:43.169Z,66.31
2023-03-05T06:53:08.861Z,63.67
2023-03-05T06:56:36.773Z,60.31
2023-03-05T07:00:02.422Z,57.66
2023-03-05T07:03:28.394Z,59.84
2023-03-05T07:06:54.289Z,64.25
2023-03-05T07:10:20.316Z,65.34
2023-03-05T07:13:47.738Z,61.69
2023-03-05T07:17:15.317Z,58.36
2023-03-05T07:20:40.937Z,55.80
2023-03-05T07:24:07.151Z,55.42
2023-03-05T07:27:35.419Z,63.68
2023-03-05T07:31:02.008Z,66.02
2023-03-05T07:34:17.752Z,64.26
2023-03-05T07:37:43.562Z,60.59
2023-03-05T07:41:09.936Z,58.27
2023-03-05T07:44:35.645Z,58.60
2023-03-05T07:48:01.239Z,65.13
2023-03-05T07:51:28.649Z,64.62
2023-03-05T07:54:54.448Z,61.11
2023-03-05T07:58:20.092Z,59.57
2023-03-05T08:01:46.376Z,59.18
2023-03-05T08:05:12.520Z,65.03
2023-03-05T08:08:38.515Z,64.28
2023-03-05T08:12:04.256Z,61.79
2023-03-05T08:15:30.835Z,60.41
2023-03-05T08:18:58.000Z,58.40
2023-03-05T08:22:23.719Z,62.01
2023-03-05T08:25:49.689Z,64.74
2023-03-05T08:29:15.962Z,62.96
2023-03-05T08:32:36.146Z,63.04
2023-03-05T08:36:22.495Z,62.56
2023-03-05T08:40:10.780Z,61.15
2023-03-05T08:43:55.891Z,60.17
2023-03-05T08:47:31.024Z,61.69
2023-03-05T08:51:18.679Z,64.28
2023-03-05T08:54:47.820Z,63.33
2023-03-05T08:58:37.465Z,62.67
2023-03-05T09:02:28.236Z,62.22
2023-03-05T09:06:12.974Z,61.72
2023-03-05T09:09:39.127Z,60.84
2023-03-05T09:13:05.848Z,60.72
2023-03-05T09:16:32.056Z,59.82
2023-03-05T09:19:58.411Z,60.85
2023-03-05T09:23:18.450Z,63.34
2023-03-05T09:26:44.941Z,61.84
2023-03-05T09:30:31.844Z,60.58
2023-03-05T09:34:38.300Z,59.66
2023-03-05T09:38:18.965Z,59.88
2023-03-05T09:42:37.619Z,62.35
2023-03-05T09:46:12.182Z,59.91
2023-03-05T09:50:09.509Z,59.21
2023-03-05T09:54:02.306Z,60.88
2023-03-05T09:57:59.423Z,62.53
2023-03-05T10:01:29.298Z,59.07
2023-03-05T10:04:50.999Z,60.43
2023-03-05T10:08:04.631Z,61.15
2023-03-05T10:11:31.336Z,62.19
2023-03-05T10:14:50.789Z,59.41
2023-03-05T10:18:17.080Z,59.93
2023-03-05T10:22:14.173Z,58.87
2023-03-05T10:26:02.430Z,58.14
2023-03-05T10:29:55.337Z,58.71
2023-03-05T10:33:29.451Z,59.12
2023-03-05T10:36:56.193Z,56.33
2023-03-05T10:40:18.373Z,55.61
2023-03-05T10:43:50.419Z,57.80
2023-03-05T10:47:02.748Z,57.06
2023-03-05T10:50:16.563Z,57.86
2023-03-05T10:53:28.786Z,57.14
2023-03-05T10:57:04.869Z,58.24
2023-03-05T11:00:21.873Z,59.16
2023-03-05T11:03:53.297Z,60.44
2023-03-05T11:07:01.648Z,59.40
2023-03-05T11:10:16.886Z,58.21
2023-03-05T11:13:27.583Z,59.76
2023-03-05T11:16:48.844Z,59.82
2023-03-05T11:20:20.202Z,60.05
2023-03-05T11:23:34.691Z,60.93
2023-03-05T11:26:46.552Z,61.67
2023-03-05T11:30:03.747Z,62.99
2023-03-05T11:33:10.809Z,62.39
2023-03-05T11:36:37.059Z,60.67
2023-03-05T11:40:17.362Z,60.17
2023-03-05T11:43:24.061Z,60.59
2023-03-05T11:46:30.515Z,60.80
2023-03-05T11:50:02.239Z,59.40
2023-03-05T11:53:09.628Z,61.35
2023-03-05T11:56:19.706Z,62.59
2023-03-05T11:59:29.650Z,60.16
2023-03-05T12:02:45.694Z,59.16
2023-03-05T12:05:55.257Z,61.53
2023-03-05T12:09:25.093Z,62.85
2023-03-05T12:12:42.597Z,60.99
2023-03-05T12:16:00.238Z,60.74
2023-03-05T12:19:28.551Z,58.76
2023-03-05T12:22:36.681Z,59.76
2023-03-05T12:25:49.516Z,62.52
2023-03-05T12:28:56.902Z,61.15
2023-03-05T12:32:39.402Z,59.49
2023-03-05T12:36:22.049Z,62.64
2023-03-05T12:39:54.828Z,61.31
2023-03-05T12:43:34.163Z,59.10
2023-03-05T12:47:23.929Z,60.84
2023-03-05T12:51:31.459Z,62.96
2023-03-05T12:55:21.220Z,59.73
2023-03-05T12:58:53.888Z,58.99
2023-03-05T13:02:31.109Z,61.16
2023-03-05T13:05:59.449Z,63.50
2023-03-05T13:09:45.115Z,58.88
2023-03-05T13:13:22.160Z,58.51
2023-03-05T13:16:52.449Z,60.67
2023-03-05T13:20:47.368Z,61.30
2023-03-05T13:24:19.649Z,61.88
2023-03-05T13:28:35.521Z,62.36
2023-03-05T13:32:05.024Z,58.85
2023-03-05T13:35:52.362Z,58.83
2023-03-05T13:39:46.720Z,60.53
2023-03-05T13:43:43.998Z,61.83
2023-03-05T13:47:37.650Z,62.16
2023-03-05T13:51:09.139Z,57.02
2023-03-05T13:54:46.326Z,59.06
2023-03-05T13:58:42.679Z,60.78
2023-03-05T14:02:18.195Z,61.89
2023-03-05T14:05:27.334Z,62.04
2023-03-05T14:09:20.477Z,56.89
2023-03-05T14:12:54.241Z,57.51
2023-03-05T14:16:39.046Z,59.59
2023-03-05T14:20:24.706Z,61.02
2023-03-05T14:24:01.972Z,62.28
2023-03-05T14:27:31.235Z,62.55
2023-03-05T14:31:17.442Z,57.16
2023-03-05T14:34:38.465Z,58.90
2023-03-05T14:38:01.797Z,60.06
2023-03-05T14:41:38.791Z,60.89
2023-03-05T14:44:57.490Z,61.68
2023-03-05T14:48:32.830Z,59.35
2023-03-05T14:52:04.623Z,57.87
2023-03-05T14:55:32.212Z,57.65
2023-03-05T14:58:59.309Z,56.96
2023-03-05T15:02:19.502Z,57.41
2023-03-05T15:05:48.786Z,57.43
2023-03-05T15:09:17.890Z,52.82
2023-03-05T15:12:44.314Z,50.04
2023-03-05T15:16:02.523Z,49.76
2023-03-05T15:19:28.235Z,50.79
2023-03-05T15:22:54.677Z,51.45
2023-03-05T15:26:15.172Z,52.02
2023-03-05T15:29:44.670Z,51.57
2023-03-05T15:33:12.070Z,51.93
2023-03-05T15:36:20.697Z,52.29
2023-03-05T15:39:34.952Z,52.44
2023-03-05T15:42:40.646Z,53.22
2023-03-05T15:46:07.827Z,53.79
2023-03-05T15:49:25.984Z,54.07
2023-03-05T15:52:41.402Z,55.40
2023-03-05T15:56:14.850Z,56.64
2023-03-05T15:59:21.274Z,57.39
2023-03-05T16:02:26.723Z,58.24
2023-03-05T16:05:32.259Z,59.68
2023-03-05T16:08:42.210Z,60.55
2023-03-05T16:11:49.234Z,61.03
2023-03-05T16:14:55.406Z,62.18
2023-03-05T16:18:06.926Z,61.29
2023-03-05T16:21:32.989Z,55.98
2023-03-05T16:25:01.292Z,57.79
2023-03-05T16:28:26.946Z,60.35
2023-03-05T16:31:52.343Z,62.66
2023-03-05T16:35:18.254Z,59.35
2023-03-05T16:38:37.564Z,59.27
2023-03-05T16:42:06.038Z,61.77
2023-03-05T16:45:12.535Z,62.84
2023-03-05T16:48:17.952Z,59.39
2023-03-05T16:51:36.206Z,57.10
2023-03-05T16:54:44.790Z,56.05
2023-03-05T16:57:53.693Z,56.31
2023-03-05T17:00:59.208Z,56.02
2023-03-05T17:04:07.937Z,56.65
2023-03-05T17:07:26.587Z,56.39
2023-03-05T17:10:52.823Z,59.72
2023-03-05T17:14:12.147Z,63.00
2023-03-05T17:17:27.752Z,65.53
2023-03-05T17:20:53.714Z,63.28
2023-03-05T17:24:01.587Z,62.20
2023-03-05T17:27:10.414Z,58.26
2023-03-05T17:30:18.449Z,54.94
2023-03-05T17:33:23.796Z,57.44
2023-03-05T17:36:29.294Z,60.74
2023-03-05T17:39:34.782Z,61.67
2023-03-05T17:43:00.485Z,67.70
2023-03-05T17:46:26.418Z,65.27
2023-03-05T17:49:31.968Z,57.91
2023-03-05T17:52:47.820Z,56.58
2023-03-05T17:55:56.011Z,60.33
2023-03-05T17:59:23.343Z,62.53
2023-03-05T18:02:49.170Z,63.50
2023-03-05T18:06:14.805Z,65.41
2023-03-05T18:09:20.285Z,61.11
2023-03-05T18:12:46.189Z,55.46
2023-03-05T18:16:14.336Z,57.58
2023-03-05T18:19:40.037Z,57.84
2023-03-05T18:22:45.618Z,62.50
2023-03-05T18:26:01.222Z,63.34
2023-03-05T18:29:11.617Z,58.60
2023-03-05T18:32:42.808Z,56.78
2023-03-05T18:36:10.772Z,56.32
2023-03-05T18:39:18.628Z,61.56
2023-03-05T18:42:37.327Z,65.26
2023-03-05T18:45:47.114Z,64.93
2023-03-05T18:48:57.094Z,58.08
2023-03-05T18:52:04.987Z,57.38
2023-03-05T18:55:22.697Z,56.66
2023-03-05T18:58:38.330Z,60.71
2023-03-05T19:02:04.310Z,63.18
2023-03-05T19:05:10.640Z,69.22
2023-03-05T19:08:19.117Z,66.51
2023-03-05T19:11:33.984Z,61.38
2023-03-05T19:14:43.930Z,56.48
2023-03-05T19:17:49.801Z,55.22
2023-03-05T19:20:59.689Z,57.59
2023-03-05T19:24:08.086Z,58.56
2023-03-05T19:27:48.056Z,58.59
2023-03-05T19:30:53.475Z,57.67
2023-03-05T19:34:09.107Z,57.34
2023-03-05T19:37:18.224Z,57.38
2023-03-05T19:40:24.055Z,57.61
2023-03-05T19:43:39.662Z,57.84
2023-03-05T19:46:50.697Z,58.39
2023-03-05T19:49:59.626Z,59.90
2023-03-05T19:53:07.765Z,59.88
2023-03-05T19:56:15.662Z,60.18
2023-03-05T19:59:22.137Z,61.27
2023-03-05T20:02:38.018Z,62.29
2023-03-05T20:05:57.959Z,71.53
2023-03-05T20:09:16.602Z,74.63
2023-03-05T20:12:36.476Z,69.45
2023-03-05T20:15:44.100Z,65.39
2023-03-05T20:18:55.333Z,64.83
2023-03-05T20:22:00.839Z,60.14
2023-03-05T20:25:17.404Z,54.72
2023-03-05T20:28:26.838Z,55.04
2023-03-05T20:31:42.473Z,55.81
2023-03-05T20:34:51.197Z,56.17
2023-03-05T20:38:20.912Z,56.92
2023-03-05T20:41:26.615Z,57.22
2023-03-05T20:44:32.261Z,57.28
2023-03-05T20:47:42.435Z,57.70
2023-03-05T20:50:47.917Z,58.70
2023-03-05T20:53:56.661Z,60.02
2023-03-05T20:57:02.267Z,61.31
2023-03-05T21:00:16.148Z,65.02
2023-03-05T21:03:26.353Z,73.38
2023-03-05T21:06:33.413Z,73.68
2023-03-05T21:09:48.080Z,70.09
2023-03-05T21:12:58.126Z,66.24
2023-03-05T21:16:08.822Z,63.10
2023-03-05T21:19:36.613Z,59.79
2023-03-05T21:23:22.750Z,54.59
2023-03-05T21:26:28.231Z,55.56
2023-03-05T21:29:33.731Z,56.03
2023-03-05T21:32:39.428Z,58.71
2023-03-05T21:35:48.337Z,62.59
2023-03-05T21:39:05.662Z,65.53
2023-03-05T21:42:22.400Z,65.49
2023-03-05T21:45:31.658Z,61.61
2023-03-05T21:48:51.146Z,59.52
2023-03-05T21:52:17.032Z,54.38
2023-03-05T21:55:33.013Z,55.16
2023-03-05T21:58:41.724Z,56.68
2023-03-05T22:01:56.160Z,56.26
2023-03-05T22:05:15.577Z,56.58
2023-03-05T22:08:31.626Z,56.82
2023-03-05T22:11:43.414Z,57.16
2023-03-05T22:14:53.911Z,57.16
2023-03-05T22:18:14.415Z,58.21
2023-03-05T22:21:54.788Z,58.50
2023-03-05T22:25:32.684Z,59.28
2023-03-05T22:28:51.524Z,61.01
2023-03-05T22:32:37.242Z,61.21
2023-03-05T22:35:54.965Z,61.62
2023-03-05T22:39:38.520Z,62.32
2023-03-05T22:43:11.833Z,71.27
2023-03-05T22:46:35.401Z,74.65
2023-03-05T22:49:52.616Z,70.42
2023-03-05T22:53:19.415Z,65.68
2023-03-05T22:56:45.235Z,61.72
2023-03-05T23:00:59.208Z,57.09
2023-03-05T23:04:40.201Z,56.08
2023-03-05T23:08:09.294Z,57.90
2023-03-05T23:11:57.833Z,58.78
2023-03-05T23:15:26.762Z,58.51
2023-03-05T23:18:43.489Z,58.46
2023-03-05T23:22:12.263Z,58.79
2023-03-05T23:25:58.269Z,58.46
2023-03-05T23:29:25.166Z,58.80
2023-03-05T23:32:43.649Z,59.58
2023-03-05T23:36:12.795Z,60.14
2023-03-05T23:39:38.609Z,60.68
2023-03-05T23:43:05.356Z,61.54
2023-03-05T23:46:31.215Z,65.69
2023-03-05T23:50:18.000Z,74.93
2023-03-05T23:53:45.874Z,72.68
2023-03-05T23:57:15.514Z,66.90
